Hildegaard — C6QU3 — position and weather

sailwx.info

Track history (hours):
 
Tides and Currents Weather Stations Pressure Air Temp Water Temp Dewpoint Dewpoint Depression Visibility Wind Speed Wind Dir Waves Ship Positions

Hildegaard

Last reported at 2016-Jul-25 02:30 UTC. Time now 2016-Jul-26 14:08 UTC.
Position N 55°01' E 006°26'.

Length 248 m; draft 8.6 m.

Type: Ship (hazmat cat A). MMSI: 308574000.

Date/timePositionNaut miles runAvg speedWind from/ knotsBaromVisibWave heightAir tempDewpointWater temp
2016-Jul-25 02:30N 55°01' E 006°26'6 5.8
2016-Jul-25 01:33N 54°56' E 006°32'5 5.4
2016-Jul-25 00:33N 54°52' E 006°38'5 5.2
2016-Jul-24 23:33N 54°48' E 006°43'5 5.2
2016-Jul-24 22:33N 54°44' E 006°48'5 5.4
2016-Jul-24 21:33N 54°39' E 006°54'6 5.9
2016-Jul-24 20:33N 54°34' E 006°59'6 6.3
2016-Jul-24 19:33N 54°29' E 007°06'7 6.7
2016-Jul-24 18:33N 54°24' E 007°14'7 6.7
2016-Jul-24 17:33N 54°19' E 007°21'6 6.5
2016-Jul-24 16:34N 54°14' E 007°27'6 6.1
2016-Jul-24 15:33N 54°08' E 007°32'5 5.4
2016-Jul-24 14:34N 54°03' E 007°29'0 0.3
2016-Jul-24 13:32N 54°03' E 007°29'0 0.0
2016-Jul-24 12:32N 54°03' E 007°29'0 0.0
2016-Jul-24 11:24N 54°03' E 007°29'0 0.0
2016-Jul-24 10:29N 54°03' E 007°29'0 0.0
2016-Jul-24 09:32N 54°03' E 007°29'0 0.2
2016-Jul-24 08:32N 54°03' E 007°29'0 0.0
2016-Jul-24 07:26N 54°03' E 007°29'0 0.0
2016-Jul-24 06:26N 54°03' E 007°29'0 0.0
2016-Jul-24 05:32N 54°03' E 007°29'0 0.0
2016-Jul-24 04:32N 54°03' E 007°29'0 0.2
2016-Jul-24 03:32N 54°03' E 007°29'0 0.1
2016-Jul-24 02:32N 54°03' E 007°29'0 0.0
2016-Jul-24 01:29N 54°03' E 007°29'0 0.0
2016-Jul-24 00:32N 54°03' E 007°29'0 0.0
2016-Jul-23 23:32N 54°03' E 007°29'0 0.0
2016-Jul-23 22:29N 54°03' E 007°29'0 0.0
2016-Jul-23 21:29N 54°03' E 007°29'0 0.2
2016-Jul-23 20:29N 54°03' E 007°29'0 0.1
2016-Jul-23 19:29N 54°03' E 007°29'0 0.0
2016-Jul-23 18:32N 54°03' E 007°29'0 0.0
2016-Jul-23 17:32N 54°03' E 007°29'0 0.0
2016-Jul-23 16:32N 54°03' E 007°29'0 0.0
2016-Jul-23 15:32N 54°03' E 007°29'0 0.2
2016-Jul-23 14:29N 54°03' E 007°29'0 0.0
2016-Jul-23 13:29N 54°03' E 007°29'0 0.0
2016-Jul-23 12:08N 54°03' E 007°29'0 0.1
2016-Jul-23 11:32N 54°03' E 007°29'0 0.1
2016-Jul-23 10:29N 54°03' E 007°29'0 0.0
2016-Jul-23 09:32N 54°03' E 007°29'0 0.1
2016-Jul-23 08:32N 54°03' E 007°29'0 0.1
2016-Jul-23 07:32N 54°03' E 007°29'0 0.1
2016-Jul-23 06:32N 54°03' E 007°29'0 0.0
2016-Jul-23 04:32N 54°03' E 007°29'0 0.0
2016-Jul-23 03:32N 54°03' E 007°29'0 0.0
2016-Jul-23 02:29N 54°03' E 007°29'0 0.1
2016-Jul-23 01:29N 54°03' E 007°29'0 0.0
2016-Jul-23 00:32N 54°03' E 007°29'0 0.0
2016-Jul-22 23:29N 54°03' E 007°29'0 0.0
2016-Jul-22 22:32N 54°03' E 007°29'0 0.0
2016-Jul-22 21:32N 54°03' E 007°29'0 0.1
2016-Jul-22 20:14N 54°03' E 007°29'0 0.2
2016-Jul-22 19:32N 54°03' E 007°29'0 0.0
2016-Jul-22 18:26N 54°03' E 007°29'0 0.0
2016-Jul-22 17:32N 54°03' E 007°29'0 0.0
2016-Jul-22 16:32N 54°03' E 007°29'0 0.0
2016-Jul-22 15:26N 54°03' E 007°29'0 0.1
2016-Jul-22 14:29N 54°03' E 007°29'0 0.1
2016-Jul-22 13:32N 54°03' E 007°29'0 0.1
2016-Jul-22 12:32N 54°03' E 007°29'0 0.0
2016-Jul-22 11:26N 54°03' E 007°29'0 0.0
2016-Jul-22 10:32N 54°03' E 007°29'0 0.0
2016-Jul-22 09:29N 54°03' E 007°29'0 0.1
2016-Jul-22 08:29N 54°03' E 007°29'0 0.1
2016-Jul-22 07:29N 54°03' E 007°29'0 0.0
2016-Jul-22 04:32N 54°03' E 007°29'0 0.0
2016-Jul-22 03:32N 54°03' E 007°29'0 0.0
2016-Jul-22 02:29N 54°03' E 007°29'0 0.1
2016-Jul-22 01:29N 54°03' E 007°29'0 0.1
2016-Jul-22 00:32N 54°03' E 007°29'0 0.0
2016-Jul-21 23:26N 54°03' E 007°29'0 0.0
2016-Jul-21 22:32N 54°03' E 007°29'0 0.0
2016-Jul-21 21:32N 54°03' E 007°29'0 0.0
2016-Jul-21 20:30N 54°03' E 007°29'0 0.1
2016-Jul-21 19:32N 54°03' E 007°29'0 0.1
2016-Jul-21 18:32N 54°03' E 007°29'0 0.0
2016-Jul-21 17:32N 54°03' E 007°29'0 0.0
2016-Jul-21 16:26N 54°03' E 007°29'0 0.0
2016-Jul-21 15:32N 54°03' E 007°29'0 0.0
2016-Jul-21 14:32N 54°03' E 007°29'0 0.2
2016-Jul-21 13:29N 54°03' E 007°29'0 0.1
2016-Jul-21 12:32N 54°03' E 007°29'0 0.0
2016-Jul-21 11:20N 54°03' E 007°29'0 0.0
2016-Jul-21 10:32N 54°03' E 007°29'0 0.0
2016-Jul-21 09:32N 54°03' E 007°29'0 0.0
2016-Jul-21 08:32N 54°03' E 007°29'0 0.0
2016-Jul-21 07:32N 54°03' E 007°29'0 0.2
2016-Jul-21 06:29N 54°03' E 007°29'0 0.0
2016-Jul-21 04:32N 54°03' E 007°29'0 0.0
2016-Jul-21 03:29N 54°03' E 007°29'0 0.0
2016-Jul-21 02:32N 54°03' E 007°29'0 0.1
2016-Jul-21 01:32N 54°03' E 007°29'0 0.2
2016-Jul-21 00:32N 54°03' E 007°29'0 0.0
2016-Jul-20 23:29N 54°03' E 007°29'0 0.0
2016-Jul-20 22:29N 54°03' E 007°29'0 0.1
2016-Jul-20 21:32N 54°03' E 007°29'0 0.1
2016-Jul-20 20:32N 54°03' E 007°29'0 0.1
2016-Jul-20 19:32N 54°03' E 007°29'0 0.1
2016-Jul-20 18:32N 54°03' E 007°29'0 0.0
2016-Jul-20 17:32N 54°03' E 007°29'0 0.0
2016-Jul-20 16:32N 54°03' E 007°29'0 0.0
2016-Jul-20 15:32N 54°03' E 007°29'0 0.0
2016-Jul-20 14:32N 54°03' E 007°29'0 0.0
2016-Jul-20 13:32N 54°03' E 007°29'0 0.1
2016-Jul-20 12:32N 54°03' E 007°29'0 0.1
2016-Jul-20 11:32N 54°03' E 007°29'0 0.2
2016-Jul-20 10:32N 54°03' E 007°29'0 0.0
2016-Jul-20 09:32N 54°03' E 007°29'0 0.0
2016-Jul-20 08:32N 54°03' E 007°29'0 0.0
2016-Jul-20 07:32N 54°03' E 007°29'0 0.2
2016-Jul-20 06:32N 54°03' E 007°29'0 0.1
2016-Jul-20 05:32N 54°03' E 007°29'0 0.0
2016-Jul-20 04:32N 54°03' E 007°29'0 0.0
2016-Jul-20 03:32N 54°03' E 007°29'0 0.0
2016-Jul-20 02:29N 54°03' E 007°29'0 0.1
2016-Jul-20 01:32N 54°03' E 007°29'0 0.1
2016-Jul-20 00:26N 54°03' E 007°29'0 0.2
2016-Jul-19 23:32N 54°03' E 007°29'0 0.0
2016-Jul-19 22:32N 54°03' E 007°29'0 0.0
2016-Jul-19 21:32N 54°03' E 007°29'0 0.0
2016-Jul-19 20:32N 54°03' E 007°29'0 0.0
2016-Jul-19 19:32N 54°03' E 007°29'0 0.1
2016-Jul-19 18:32N 54°03' E 007°29'0 0.2
2016-Jul-19 17:32N 54°03' E 007°29'0 0.0
2016-Jul-19 16:29N 54°03' E 007°29'0 0.0
2016-Jul-19 15:32N 54°03' E 007°29'0 0.0
2016-Jul-19 14:26N 54°03' E 007°29'0 0.1
2016-Jul-19 13:32N 54°03' E 007°29'0 0.2
2016-Jul-19 12:32N 54°03' E 007°29'0 0.1
2016-Jul-19 11:33N 54°03' E 007°29'0 0.0
2016-Jul-19 10:17N 54°03' E 007°29'0 0.0
2016-Jul-19 09:32N 54°03' E 007°29'0 0.0
2016-Jul-19 08:29N 54°03' E 007°29'0 0.0
2016-Jul-19 07:32N 54°03' E 007°29'0 0.1
2016-Jul-19 04:32N 54°03' E 007°29'0 0.0
2016-Jul-19 03:32N 54°03' E 007°29'0 0.0
2016-Jul-19 02:32N 54°03' E 007°29'0 0.1
2016-Jul-19 01:32N 54°03' E 007°29'0 0.2
2016-Jul-19 00:26N 54°03' E 007°29'0 0.0
2016-Jul-18 23:32N 54°03' E 007°29'0 0.0
2016-Jul-18 22:29N 54°03' E 007°29'0 0.0
2016-Jul-18 21:32N 54°03' E 007°29'0 0.0
2016-Jul-18 20:23N 54°03' E 007°29'0 0.0
2016-Jul-18 19:32N 54°03' E 007°29'0 0.0
2016-Jul-18 18:32N 54°03' E 007°29'0 0.0
2016-Jul-18 17:32N 54°03' E 007°29'0 0.0
2016-Jul-18 16:29N 54°03' E 007°29'0 0.1
2016-Jul-18 15:29N 54°03' E 007°29'0 0.1
2016-Jul-18 14:32N 54°03' E 007°29'0 0.1
2016-Jul-18 13:32N 54°03' E 007°29'0 0.1
2016-Jul-18 12:32N 54°03' E 007°29'0 0.0
2016-Jul-18 11:20N 54°03' E 007°29'0 0.0
2016-Jul-18 10:32N 54°03' E 007°29'0 0.0
2016-Jul-18 09:32N 54°03' E 007°29'0 0.0
2016-Jul-18 08:32N 54°03' E 007°29'0 0.0
2016-Jul-18 07:32N 54°03' E 007°29'0 0.0
2016-Jul-18 06:26N 54°03' E 007°29'0 0.0
2016-Jul-18 05:32N 54°03' E 007°29'0 0.0
2016-Jul-18 04:26N 54°03' E 007°29'0 0.0
2016-Jul-18 03:29N 54°03' E 007°29'0 0.0
2016-Jul-18 02:32N 54°03' E 007°29'0 0.0
2016-Jul-18 01:32N 54°03' E 007°29'0 0.0
2016-Jul-18 00:15N 54°03' E 007°29'0 0.0
2016-Jul-17 23:26N 54°03' E 007°29'0 0.0
2016-Jul-17 22:26N 54°03' E 007°29'0 0.0
2016-Jul-17 21:32N 54°03' E 007°29'0 0.0
2016-Jul-17 20:20N 54°03' E 007°29'0 0.0
2016-Jul-17 19:32N 54°03' E 007°29'0 0.0
2016-Jul-17 18:29N 54°03' E 007°29'0 0.0
2016-Jul-17 17:32N 54°03' E 007°29'0 0.0
2016-Jul-17 16:32N 54°03' E 007°29'0 0.0
2016-Jul-17 15:32N 54°03' E 007°29'0 0.1
2016-Jul-17 14:29N 54°03' E 007°29'0 0.0
2016-Jul-17 13:32N 54°03' E 007°29'0 0.1
2016-Jul-17 12:32N 54°03' E 007°29'0 0.0
2016-Jul-17 11:29N 54°03' E 007°29'0 0.0
2016-Jul-17 10:32N 54°03' E 007°29'0 0.0
2016-Jul-17 09:29N 54°03' E 007°29'0 0.0
2016-Jul-17 08:32N 54°03' E 007°29'0 0.0
2016-Jul-17 07:29N 54°03' E 007°29'0 0.0
2016-Jul-17 06:32N 54°03' E 007°29'0 0.0
2016-Jul-17 04:32N 54°03' E 007°29'0 0.0
2016-Jul-17 03:29N 54°03' E 007°29'0 0.2
2016-Jul-17 02:32N 54°03' E 007°29'0 0.1
2016-Jul-17 01:32N 54°03' E 007°29'0 0.1
2016-Jul-17 00:32N 54°03' E 007°29'0 0.0
2016-Jul-16 23:32N 54°03' E 007°29'0 0.0
2016-Jul-16 22:32N 54°03' E 007°29'0 0.0
2016-Jul-16 21:26N 54°03' E 007°29'0 0.0
2016-Jul-16 20:32N 54°03' E 007°29'0 0.0
2016-Jul-16 19:30N 54°03' E 007°29'0 0.0
2016-Jul-16 18:29N 54°03' E 007°29'0 0.0
2016-Jul-16 17:32N 54°03' E 007°29'0 0.0
2016-Jul-16 16:32N 54°03' E 007°29'0 0.0
2016-Jul-16 15:32N 54°03' E 007°29'0 0.0
2016-Jul-16 14:32N 54°03' E 007°29'0 0.0
2016-Jul-16 13:32N 54°03' E 007°29'0 0.0
2016-Jul-16 12:32N 54°03' E 007°29'0 0.1
2016-Jul-16 11:32N 54°03' E 007°29'0 0.0
2016-Jul-16 10:32N 54°03' E 007°29'0 0.0
2016-Jul-16 09:32N 54°03' E 007°29'0 0.0
2016-Jul-16 08:29N 54°03' E 007°29'0 0.0
2016-Jul-16 07:32N 54°03' E 007°29'0 0.0
2016-Jul-16 06:29N 54°03' E 007°29'0 0.0
2016-Jul-16 04:32N 54°03' E 007°29'0 0.0
2016-Jul-16 03:32N 54°03' E 007°29'0 0.0
2016-Jul-16 02:32N 54°03' E 007°29'0 0.0
2016-Jul-16 01:32N 54°03' E 007°29'0 0.0
2016-Jul-16 00:29N 54°03' E 007°29'0 0.0
2016-Jul-15 23:32N 54°03' E 007°29'0 0.0
2016-Jul-15 22:32N 54°03' E 007°29'0 0.1
2016-Jul-15 21:29N 54°03' E 007°29'0 0.0
2016-Jul-15 20:32N 54°03' E 007°29'0 0.0
2016-Jul-15 19:26N 54°03' E 007°29'0 0.0
2016-Jul-15 18:32N 54°03' E 007°29'0 0.0
2016-Jul-15 17:32N 54°03' E 007°29'0 0.0
2016-Jul-15 16:20N 54°03' E 007°29'0 0.1
2016-Jul-15 15:32N 54°03' E 007°29'0 0.0
2016-Jul-15 14:32N 54°03' E 007°29'0 0.1
2016-Jul-15 13:32N 54°03' E 007°29'0 0.0
2016-Jul-15 12:32N 54°03' E 007°29'0 0.0
2016-Jul-15 11:32N 54°03' E 007°29'0 0.0
2016-Jul-15 10:29N 54°03' E 007°29'0 0.0
2016-Jul-15 09:32N 54°03' E 007°29'0 0.0
2016-Jul-15 08:32N 54°03' E 007°29'0 0.0
2016-Jul-15 07:26N 54°03' E 007°29'0 0.1
2016-Jul-15 06:32N 54°03' E 007°29'0 0.0
2016-Jul-15 05:32N 54°03' E 007°29'0 0.1
2016-Jul-15 04:32N 54°03' E 007°29'0 0.0
2016-Jul-15 03:32N 54°03' E 007°29'0 0.0
2016-Jul-15 02:32N 54°03' E 007°29'  
Track history (hours):
 
Tides and Currents Weather Stations Pressure Air Temp Water Temp Dewpoint Dewpoint Depression Visibility Wind Speed Wind Dir Waves Ship Positions

Hildegaard

Last reported at 2016-Jul-25 02:30 UTC. Time now 2016-Jul-26 14:08 UTC.
Position N 55°01' E 006°26'.

Length 248 m; draft 8.6 m.

Type: Ship (hazmat cat A). MMSI: 308574000.

Date/timePositionNaut miles runAvg speedWind from/ knotsBaromVisibWave heightAir tempDewpointWater temp
2016-Jul-25 02:30N 55°01' E 006°26'6 5.8
2016-Jul-25 01:33N 54°56' E 006°32'5 5.4
2016-Jul-25 00:33N 54°52' E 006°38'5 5.2
2016-Jul-24 23:33N 54°48' E 006°43'5 5.2
2016-Jul-24 22:33N 54°44' E 006°48'5 5.4
2016-Jul-24 21:33N 54°39' E 006°54'6 5.9
2016-Jul-24 20:33N 54°34' E 006°59'6 6.3
2016-Jul-24 19:33N 54°29' E 007°06'7 6.7
2016-Jul-24 18:33N 54°24' E 007°14'7 6.7
2016-Jul-24 17:33N 54°19' E 007°21'6 6.5
2016-Jul-24 16:34N 54°14' E 007°27'6 6.1
2016-Jul-24 15:33N 54°08' E 007°32'5 5.4
2016-Jul-24 14:34N 54°03' E 007°29'0 0.3
2016-Jul-24 13:32N 54°03' E 007°29'0 0.0
2016-Jul-24 12:32N 54°03' E 007°29'0 0.0
2016-Jul-24 11:24N 54°03' E 007°29'0 0.0
2016-Jul-24 10:29N 54°03' E 007°29'0 0.0
2016-Jul-24 09:32N 54°03' E 007°29'0 0.2
2016-Jul-24 08:32N 54°03' E 007°29'0 0.0
2016-Jul-24 07:26N 54°03' E 007°29'0 0.0
2016-Jul-24 06:26N 54°03' E 007°29'0 0.0
2016-Jul-24 05:32N 54°03' E 007°29'0 0.0
2016-Jul-24 04:32N 54°03' E 007°29'0 0.2
2016-Jul-24 03:32N 54°03' E 007°29'0 0.1
2016-Jul-24 02:32N 54°03' E 007°29'0 0.0
2016-Jul-24 01:29N 54°03' E 007°29'0 0.0
2016-Jul-24 00:32N 54°03' E 007°29'0 0.0
2016-Jul-23 23:32N 54°03' E 007°29'0 0.0
2016-Jul-23 22:29N 54°03' E 007°29'0 0.0
2016-Jul-23 21:29N 54°03' E 007°29'0 0.2
2016-Jul-23 20:29N 54°03' E 007°29'0 0.1
2016-Jul-23 19:29N 54°03' E 007°29'0 0.0
2016-Jul-23 18:32N 54°03' E 007°29'0 0.0
2016-Jul-23 17:32N 54°03' E 007°29'0 0.0
2016-Jul-23 16:32N 54°03' E 007°29'0 0.0
2016-Jul-23 15:32N 54°03' E 007°29'0 0.2
2016-Jul-23 14:29N 54°03' E 007°29'0 0.0
2016-Jul-23 13:29N 54°03' E 007°29'0 0.0
2016-Jul-23 12:08N 54°03' E 007°29'0 0.1
2016-Jul-23 11:32N 54°03' E 007°29'0 0.1
2016-Jul-23 10:29N 54°03' E 007°29'0 0.0
2016-Jul-23 09:32N 54°03' E 007°29'0 0.1
2016-Jul-23 08:32N 54°03' E 007°29'0 0.1
2016-Jul-23 07:32N 54°03' E 007°29'0 0.1
2016-Jul-23 06:32N 54°03' E 007°29'0 0.0
2016-Jul-23 04:32N 54°03' E 007°29'0 0.0
2016-Jul-23 03:32N 54°03' E 007°29'0 0.0
2016-Jul-23 02:29N 54°03' E 007°29'0 0.1
2016-Jul-23 01:29N 54°03' E 007°29'0 0.0
2016-Jul-23 00:32N 54°03' E 007°29'0 0.0
2016-Jul-22 23:29N 54°03' E 007°29'0 0.0
2016-Jul-22 22:32N 54°03' E 007°29'0 0.0
2016-Jul-22 21:32N 54°03' E 007°29'0 0.1
2016-Jul-22 20:14N 54°03' E 007°29'0 0.2
2016-Jul-22 19:32N 54°03' E 007°29'0 0.0
2016-Jul-22 18:26N 54°03' E 007°29'0 0.0
2016-Jul-22 17:32N 54°03' E 007°29'0 0.0
2016-Jul-22 16:32N 54°03' E 007°29'0 0.0
2016-Jul-22 15:26N 54°03' E 007°29'0 0.1
2016-Jul-22 14:29N 54°03' E 007°29'0 0.1
2016-Jul-22 13:32N 54°03' E 007°29'0 0.1
2016-Jul-22 12:32N 54°03' E 007°29'0 0.0
2016-Jul-22 11:26N 54°03' E 007°29'0 0.0
2016-Jul-22 10:32N 54°03' E 007°29'0 0.0
2016-Jul-22 09:29N 54°03' E 007°29'0 0.1
2016-Jul-22 08:29N 54°03' E 007°29'0 0.1
2016-Jul-22 07:29N 54°03' E 007°29'0 0.0
2016-Jul-22 04:32N 54°03' E 007°29'0 0.0
2016-Jul-22 03:32N 54°03' E 007°29'0 0.0
2016-Jul-22 02:29N 54°03' E 007°29'0 0.1
2016-Jul-22 01:29N 54°03' E 007°29'0 0.1
2016-Jul-22 00:32N 54°03' E 007°29'0 0.0
2016-Jul-21 23:26N 54°03' E 007°29'0 0.0
2016-Jul-21 22:32N 54°03' E 007°29'0 0.0
2016-Jul-21 21:32N 54°03' E 007°29'0 0.0
2016-Jul-21 20:30N 54°03' E 007°29'0 0.1
2016-Jul-21 19:32N 54°03' E 007°29'0 0.1
2016-Jul-21 18:32N 54°03' E 007°29'0 0.0
2016-Jul-21 17:32N 54°03' E 007°29'0 0.0
2016-Jul-21 16:26N 54°03' E 007°29'0 0.0
2016-Jul-21 15:32N 54°03' E 007°29'0 0.0
2016-Jul-21 14:32N 54°03' E 007°29'0 0.2
2016-Jul-21 13:29N 54°03' E 007°29'0 0.1
2016-Jul-21 12:32N 54°03' E 007°29'0 0.0
2016-Jul-21 11:20N 54°03' E 007°29'0 0.0
2016-Jul-21 10:32N 54°03' E 007°29'0 0.0
2016-Jul-21 09:32N 54°03' E 007°29'0 0.0
2016-Jul-21 08:32N 54°03' E 007°29'0 0.0
2016-Jul-21 07:32N 54°03' E 007°29'0 0.2
2016-Jul-21 06:29N 54°03' E 007°29'0 0.0
2016-Jul-21 04:32N 54°03' E 007°29'0 0.0
2016-Jul-21 03:29N 54°03' E 007°29'0 0.0
2016-Jul-21 02:32N 54°03' E 007°29'0 0.1
2016-Jul-21 01:32N 54°03' E 007°29'0 0.2
2016-Jul-21 00:32N 54°03' E 007°29'0 0.0
2016-Jul-20 23:29N 54°03' E 007°29'0 0.0
2016-Jul-20 22:29N 54°03' E 007°29'0 0.1
2016-Jul-20 21:32N 54°03' E 007°29'0 0.1
2016-Jul-20 20:32N 54°03' E 007°29'0 0.1
2016-Jul-20 19:32N 54°03' E 007°29'0 0.1
2016-Jul-20 18:32N 54°03' E 007°29'0 0.0
2016-Jul-20 17:32N 54°03' E 007°29'0 0.0
2016-Jul-20 16:32N 54°03' E 007°29'0 0.0
2016-Jul-20 15:32N 54°03' E 007°29'0 0.0
2016-Jul-20 14:32N 54°03' E 007°29'0 0.0
2016-Jul-20 13:32N 54°03' E 007°29'0 0.1
2016-Jul-20 12:32N 54°03' E 007°29'0 0.1
2016-Jul-20 11:32N 54°03' E 007°29'0 0.2
2016-Jul-20 10:32N 54°03' E 007°29'0 0.0
2016-Jul-20 09:32N 54°03' E 007°29'0 0.0
2016-Jul-20 08:32N 54°03' E 007°29'0 0.0
2016-Jul-20 07:32N 54°03' E 007°29'0 0.2
2016-Jul-20 06:32N 54°03' E 007°29'0 0.1
2016-Jul-20 05:32N 54°03' E 007°29'0 0.0
2016-Jul-20 04:32N 54°03' E 007°29'0 0.0
2016-Jul-20 03:32N 54°03' E 007°29'0 0.0
2016-Jul-20 02:29N 54°03' E 007°29'0 0.1
2016-Jul-20 01:32N 54°03' E 007°29'0 0.1
2016-Jul-20 00:26N 54°03' E 007°29'0 0.2
2016-Jul-19 23:32N 54°03' E 007°29'0 0.0
2016-Jul-19 22:32N 54°03' E 007°29'0 0.0
2016-Jul-19 21:32N 54°03' E 007°29'0 0.0
2016-Jul-19 20:32N 54°03' E 007°29'0 0.0
2016-Jul-19 19:32N 54°03' E 007°29'0 0.1
2016-Jul-19 18:32N 54°03' E 007°29'0 0.2
2016-Jul-19 17:32N 54°03' E 007°29'0 0.0
2016-Jul-19 16:29N 54°03' E 007°29'0 0.0
2016-Jul-19 15:32N 54°03' E 007°29'0 0.0
2016-Jul-19 14:26N 54°03' E 007°29'0 0.1
2016-Jul-19 13:32N 54°03' E 007°29'0 0.2
2016-Jul-19 12:32N 54°03' E 007°29'0 0.1
2016-Jul-19 11:33N 54°03' E 007°29'0 0.0
2016-Jul-19 10:17N 54°03' E 007°29'0 0.0
2016-Jul-19 09:32N 54°03' E 007°29'0 0.0
2016-Jul-19 08:29N 54°03' E 007°29'0 0.0
2016-Jul-19 07:32N 54°03' E 007°29'0 0.1
2016-Jul-19 04:32N 54°03' E 007°29'0 0.0
2016-Jul-19 03:32N 54°03' E 007°29'0 0.0
2016-Jul-19 02:32N 54°03' E 007°29'0 0.1
2016-Jul-19 01:32N 54°03' E 007°29'0 0.2
2016-Jul-19 00:26N 54°03' E 007°29'0 0.0
2016-Jul-18 23:32N 54°03' E 007°29'0 0.0
2016-Jul-18 22:29N 54°03' E 007°29'0 0.0
2016-Jul-18 21:32N 54°03' E 007°29'0 0.0
2016-Jul-18 20:23N 54°03' E 007°29'0 0.0
2016-Jul-18 19:32N 54°03' E 007°29'0 0.0
2016-Jul-18 18:32N 54°03' E 007°29'0 0.0
2016-Jul-18 17:32N 54°03' E 007°29'0 0.0
2016-Jul-18 16:29N 54°03' E 007°29'0 0.1
2016-Jul-18 15:29N 54°03' E 007°29'0 0.1
2016-Jul-18 14:32N 54°03' E 007°29'0 0.1
2016-Jul-18 13:32N 54°03' E 007°29'0 0.1
2016-Jul-18 12:32N 54°03' E 007°29'0 0.0
2016-Jul-18 11:20N 54°03' E 007°29'0 0.0
2016-Jul-18 10:32N 54°03' E 007°29'0 0.0
2016-Jul-18 09:32N 54°03' E 007°29'0 0.0
2016-Jul-18 08:32N 54°03' E 007°29'0 0.0
2016-Jul-18 07:32N 54°03' E 007°29'0 0.0
2016-Jul-18 06:26N 54°03' E 007°29'0 0.0
2016-Jul-18 05:32N 54°03' E 007°29'0 0.0
2016-Jul-18 04:26N 54°03' E 007°29'0 0.0
2016-Jul-18 03:29N 54°03' E 007°29'0 0.0
2016-Jul-18 02:32N 54°03' E 007°29'0 0.0
2016-Jul-18 01:32N 54°03' E 007°29'0 0.0
2016-Jul-18 00:15N 54°03' E 007°29'0 0.0
2016-Jul-17 23:26N 54°03' E 007°29'0 0.0
2016-Jul-17 22:26N 54°03' E 007°29'0 0.0
2016-Jul-17 21:32N 54°03' E 007°29'0 0.0
2016-Jul-17 20:20N 54°03' E 007°29'0 0.0
2016-Jul-17 19:32N 54°03' E 007°29'0 0.0
2016-Jul-17 18:29N 54°03' E 007°29'0 0.0
2016-Jul-17 17:32N 54°03' E 007°29'0 0.0
2016-Jul-17 16:32N 54°03' E 007°29'0 0.0
2016-Jul-17 15:32N 54°03' E 007°29'0 0.1
2016-Jul-17 14:29N 54°03' E 007°29'0 0.0
2016-Jul-17 13:32N 54°03' E 007°29'0 0.1
2016-Jul-17 12:32N 54°03' E 007°29'0 0.0
2016-Jul-17 11:29N 54°03' E 007°29'0 0.0
2016-Jul-17 10:32N 54°03' E 007°29'0 0.0
2016-Jul-17 09:29N 54°03' E 007°29'0 0.0
2016-Jul-17 08:32N 54°03' E 007°29'0 0.0
2016-Jul-17 07:29N 54°03' E 007°29'0 0.0
2016-Jul-17 06:32N 54°03' E 007°29'0 0.0
2016-Jul-17 04:32N 54°03' E 007°29'0 0.0
2016-Jul-17 03:29N 54°03' E 007°29'0 0.2
2016-Jul-17 02:32N 54°03' E 007°29'0 0.1
2016-Jul-17 01:32N 54°03' E 007°29'0 0.1
2016-Jul-17 00:32N 54°03' E 007°29'0 0.0
2016-Jul-16 23:32N 54°03' E 007°29'0 0.0
2016-Jul-16 22:32N 54°03' E 007°29'0 0.0
2016-Jul-16 21:26N 54°03' E 007°29'0 0.0
2016-Jul-16 20:32N 54°03' E 007°29'0 0.0
2016-Jul-16 19:30N 54°03' E 007°29'0 0.0
2016-Jul-16 18:29N 54°03' E 007°29'0 0.0
2016-Jul-16 17:32N 54°03' E 007°29'0 0.0
2016-Jul-16 16:32N 54°03' E 007°29'0 0.0
2016-Jul-16 15:32N 54°03' E 007°29'0 0.0
2016-Jul-16 14:32N 54°03' E 007°29'0 0.0
2016-Jul-16 13:32N 54°03' E 007°29'0 0.0
2016-Jul-16 12:32N 54°03' E 007°29'0 0.1
2016-Jul-16 11:32N 54°03' E 007°29'0 0.0
2016-Jul-16 10:32N 54°03' E 007°29'0 0.0
2016-Jul-16 09:32N 54°03' E 007°29'0 0.0
2016-Jul-16 08:29N 54°03' E 007°29'0 0.0
2016-Jul-16 07:32N 54°03' E 007°29'0 0.0
2016-Jul-16 06:29N 54°03' E 007°29'0 0.0
2016-Jul-16 04:32N 54°03' E 007°29'0 0.0
2016-Jul-16 03:32N 54°03' E 007°29'0 0.0
2016-Jul-16 02:32N 54°03' E 007°29'0 0.0
2016-Jul-16 01:32N 54°03' E 007°29'0 0.0
2016-Jul-16 00:29N 54°03' E 007°29'0 0.0
2016-Jul-15 23:32N 54°03' E 007°29'0 0.0
2016-Jul-15 22:32N 54°03' E 007°29'0 0.1
2016-Jul-15 21:29N 54°03' E 007°29'0 0.0
2016-Jul-15 20:32N 54°03' E 007°29'0 0.0
2016-Jul-15 19:26N 54°03' E 007°29'0 0.0
2016-Jul-15 18:32N 54°03' E 007°29'0 0.0
2016-Jul-15 17:32N 54°03' E 007°29'0 0.0
2016-Jul-15 16:20N 54°03' E 007°29'0 0.1
2016-Jul-15 15:32N 54°03' E 007°29'0 0.0
2016-Jul-15 14:32N 54°03' E 007°29'0 0.1
2016-Jul-15 13:32N 54°03' E 007°29'0 0.0
2016-Jul-15 12:32N 54°03' E 007°29'0 0.0
2016-Jul-15 11:32N 54°03' E 007°29'0 0.0
2016-Jul-15 10:29N 54°03' E 007°29'0 0.0
2016-Jul-15 09:32N 54°03' E 007°29'0 0.0
2016-Jul-15 08:32N 54°03' E 007°29'0 0.0
2016-Jul-15 07:26N 54°03' E 007°29'0 0.1
2016-Jul-15 06:32N 54°03' E 007°29'0 0.0
2016-Jul-15 05:32N 54°03' E 007°29'0 0.1
2016-Jul-15 04:32N 54°03' E 007°29'0 0.0
2016-Jul-15 03:32N 54°03' E 007°29'0 0.0
2016-Jul-15 02:32N 54°03' E 007°29'  

Dump ship's entire track history